Carmen1 — HA3563 — position and weather

sailwx.info

Track history (hours):
 
Tides and Currents Weather Stations Pressure Air Temp Water Temp Dewpoint Dewpoint Depression Visibility Wind Speed Wind Dir Waves Ship Positions

Carmen1

Last reported at 2017-Oct-13 18:08 UTC. Time now 2017-Oct-18 17:01 UTC.
Position N 48°12' E 015°00'.

Length 114 m; draft 1.8 m.

Type: Passenger vessel. MMSI: 229736000.

Date/timePositionNaut miles runAvg speedWind from/ knotsBaromVisibWave heightAir tempDewpointWater temp
2017-Oct-13 18:08N 48°12' E 015°00'1 8.4
2017-Oct-13 18:00N 48°12' E 015°02'2 3.6
2017-Oct-13 17:30N 48°11' E 015°04'2 3.2
2017-Oct-13 17:00N 48°10' E 015°06'3 6.0
2017-Oct-13 16:30N 48°13' E 015°09'4 7.9
2017-Oct-13 16:00N 48°13' E 015°15'49 2.8
2017-Oct-12 22:10N 48°11' E 016°28'5 3.2
2017-Oct-12 20:38N 48°08' E 016°34'2 5.9
2017-Oct-12 20:17N 48°08' E 016°37'2 3.2
2017-Oct-12 19:34N 48°07' E 016°41'1 5.4
2017-Oct-12 19:25N 48°07' E 016°42'2 4.5
2017-Oct-12 18:58N 48°08' E 016°45'2 4.3
2017-Oct-12 18:29N 48°07' E 016°48'3 5.1
2017-Oct-12 17:56N 48°08' E 016°52'2 4.9
2017-Oct-12 17:30N 48°09' E 016°55'2 3.7
2017-Oct-12 17:00N 48°10' E 016°57'2 3.9
2017-Oct-12 16:30N 48°10' E 016°60'2 4.7
2017-Oct-12 16:00N 48°09' E 017°03'2 4.7
2017-Oct-12 15:30N 48°08' E 017°07'0 0.0
2017-Oct-12 15:00N 48°08' E 017°07'0 0.0
2017-Oct-12 14:30N 48°08' E 017°07'0 0.0
2017-Oct-12 14:00N 48°08' E 017°07'0 0.0
2017-Oct-12 13:30N 48°08' E 017°07'0 0.0
2017-Oct-12 13:00N 48°08' E 017°07'0 0.0
2017-Oct-12 12:30N 48°08' E 017°07'0 0.0
2017-Oct-12 12:00N 48°08' E 017°07'0 0.0
2017-Oct-12 11:30N 48°08' E 017°07'1 2.3
2017-Oct-12 11:00N 48°08' E 017°08'3 5.7
2017-Oct-12 10:30N 48°05' E 017°09'4 7.7
2017-Oct-12 10:00N 48°03' E 017°13'4 8.0
2017-Oct-12 09:30N 48°00' E 017°18'4 8.6
2017-Oct-12 09:00N 47°59' E 017°24'5 9.4
2017-Oct-12 08:30N 47°55' E 017°29'3 6.7
2017-Oct-12 08:00N 47°53' E 017°32'0 0.8
2017-Oct-12 07:30N 47°53' E 017°33'3 6.5
2017-Oct-12 07:00N 47°50' E 017°36'4 7.5
2017-Oct-12 06:30N 47°47' E 017°40'5 6.4
2017-Oct-12 05:46N 47°45' E 017°46'8 5.7
2017-Oct-12 04:21N 47°45' E 017°58'47 5.5
2017-Oct-11 19:45N 47°38' E 019°06'2 7.9
2017-Oct-11 19:29N 47°36' E 019°05'3 7.3
2017-Oct-11 19:00N 47°33' E 019°04'3 6.0
2017-Oct-11 18:30N 47°30' E 019°03'1 2.3
2017-Oct-11 17:53N 47°28' E 019°04'0 0.0
2017-Oct-11 17:26N 47°28' E 019°04'0 0.0
2017-Oct-11 16:50N 47°28' E 019°04'59 3.5
2017-Oct-11 00:00N 47°47' E 017°41'511.2
2017-Oct-10 23:30N 47°50' E 017°35'3 6.7
2017-Oct-10 23:00N 47°53' E 017°32'2 4.2
2017-Oct-10 22:30N 47°55' E 017°30'611.3
2017-Oct-10 22:00N 47°58' E 017°24'4 8.9
2017-Oct-10 21:30N 48°00' E 017°18'5 9.8
2017-Oct-10 21:00N 48°03' E 017°12'510.2
2017-Oct-10 20:30N 48°08' E 017°09'611.4
2017-Oct-10 20:00N 48°09' E 017°01'510.2
2017-Oct-10 19:30N 48°08' E 016°53'612.1
2017-Oct-10 19:00N 48°08' E 016°44'  
2017-Oct-08 10:21N 48°12' E 014°58'3 8.0
2017-Oct-08 10:01N 48°12' E 015°01'2 3.8
2017-Oct-08 09:30N 48°11' E 015°04'1 2.3
2017-Oct-08 09:01N 48°11' E 015°05'2 4.6
2017-Oct-08 08:31N 48°12' E 015°07'4 7.4
2017-Oct-08 08:01N 48°13' E 015°13'4 7.1
2017-Oct-08 07:30N 48°14' E 015°18'1 1.9
2017-Oct-08 07:00N 48°14' E 015°19'44 2.2
2017-Oct-07 11:02N 48°13' E 016°25'0 0.0
2017-Oct-07 10:56N 48°13' E 016°25'0 0.0
2017-Oct-07 10:20N 48°13' E 016°25'0 0.0
2017-Oct-07 09:50N 48°13' E 016°25'0 0.0
2017-Oct-07 08:50N 48°13' E 016°25'0 0.0
2017-Oct-07 08:26N 48°13' E 016°25'0 0.0
2017-Oct-07 07:56N 48°13' E 016°25'0 0.0
2017-Oct-07 07:26N 48°13' E 016°25'0 0.0
2017-Oct-07 06:56N 48°13' E 016°25'0 0.0
2017-Oct-07 06:26N 48°13' E 016°25'0 0.0
2017-Oct-07 05:56N 48°13' E 016°25'0 0.0
2017-Oct-07 05:14N 48°13' E 016°25'0 0.0
2017-Oct-07 04:56N 48°13' E 016°25'0 0.0
2017-Oct-07 04:26N 48°13' E 016°25'0 0.0
2017-Oct-07 03:44N 48°13' E 016°25'0 0.0
2017-Oct-07 03:26N 48°13' E 016°25'0 0.0
2017-Oct-07 01:32N 48°13' E 016°25'0 0.0
2017-Oct-07 01:29N 48°13' E 016°25'0 0.0
2017-Oct-07 00:53N 48°13' E 016°25'0 0.0
2017-Oct-07 00:20N 48°13' E 016°25'0 0.0
2017-Oct-06 23:56N 48°13' E 016°25'0 0.0
2017-Oct-06 23:26N 48°13' E 016°25'0 0.0
2017-Oct-06 22:56N 48°13' E 016°25'0 0.0
2017-Oct-06 22:20N 48°13' E 016°25'0 0.0
2017-Oct-06 21:50N 48°13' E 016°25'0 0.0
2017-Oct-06 21:14N 48°13' E 016°25'0 0.0
2017-Oct-06 20:44N 48°13' E 016°25'0 0.0
2017-Oct-06 20:26N 48°13' E 016°25'0 0.0
2017-Oct-06 19:14N 48°13' E 016°25'0 0.0
2017-Oct-06 17:32N 48°13' E 016°25'0 0.0
2017-Oct-06 16:20N 48°13' E 016°25'0 0.0
2017-Oct-06 15:50N 48°13' E 016°25'0 0.0
2017-Oct-06 15:26N 48°13' E 016°25'0 0.0
2017-Oct-06 13:44N 48°13' E 016°25'0 0.0
2017-Oct-06 13:20N 48°13' E 016°25'0 0.0
2017-Oct-06 12:56N 48°13' E 016°25'0 0.0
2017-Oct-06 11:50N 48°13' E 016°25'4 0.1
2017-Oct-05 00:43N 48°10' E 016°29'5 4.5
2017-Oct-04 23:37N 48°08' E 016°36'2 4.6
2017-Oct-04 23:12N 48°08' E 016°39'2 4.8
2017-Oct-04 22:52N 48°07' E 016°41'2 5.0
2017-Oct-04 22:27N 48°08' E 016°44'2 4.9
2017-Oct-04 22:01N 48°07' E 016°47'2 4.9
2017-Oct-04 21:31N 48°07' E 016°51'3 5.1
2017-Oct-04 21:01N 48°09' E 016°54'2 4.7
2017-Oct-04 20:31N 48°10' E 016°57'2 4.0
2017-Oct-04 20:00N 48°09' E 017°00'2 4.5
2017-Oct-04 19:31N 48°09' E 017°03'2 4.6
2017-Oct-04 19:00N 48°08' E 017°07'0 0.3
2017-Oct-04 18:30N 48°08' E 017°07'0 0.0
2017-Oct-04 18:00N 48°08' E 017°07'0 0.0
2017-Oct-04 17:30N 48°08' E 017°07'0 0.0
2017-Oct-04 17:00N 48°08' E 017°07'0 0.0
2017-Oct-04 16:30N 48°08' E 017°07'0 0.0
2017-Oct-04 16:00N 48°08' E 017°07'0 0.0
2017-Oct-04 15:31N 48°08' E 017°07'0 0.0
2017-Oct-04 15:00N 48°08' E 017°07'0 0.0
2017-Oct-04 14:30N 48°08' E 017°07'0 0.0
2017-Oct-04 14:00N 48°08' E 017°07'0 0.0
2017-Oct-04 13:30N 48°08' E 017°07'0 0.0
2017-Oct-04 13:00N 48°08' E 017°07'0 0.0
2017-Oct-04 12:30N 48°08' E 017°07'2 3.0
2017-Oct-04 12:00N 48°08' E 017°09'4 7.3
2017-Oct-04 11:30N 48°04' E 017°10'5 9.0
2017-Oct-04 11:00N 48°01' E 017°15'4 8.8
2017-Oct-04 10:30N 47°60' E 017°21'4 7.7
2017-Oct-04 10:01N 47°57' E 017°26'4 8.6
2017-Oct-04 09:30N 47°54' E 017°31'2 3.7
2017-Oct-04 09:00N 47°53' E 017°32'1 2.5
2017-Oct-04 08:31N 47°52' E 017°33'3 5.9
2017-Oct-04 08:00N 47°50' E 017°36'4 6.4
2017-Oct-04 07:28N 47°47' E 017°40'5 6.3
2017-Oct-04 06:41N 47°45' E 017°46'55 5.6
2017-Oct-03 20:54N 47°39' E 019°07'3 7.8
2017-Oct-03 20:30N 47°36' E 019°05'4 7.4
2017-Oct-03 20:00N 47°33' E 019°04'3 5.8
2017-Oct-03 19:30N 47°30' E 019°03'1 1.8
2017-Oct-03 19:00N 47°29' E 019°03'0 0.0
2017-Oct-03 18:21N 47°29' E 019°03'  
Track history (hours):
 
Tides and Currents Weather Stations Pressure Air Temp Water Temp Dewpoint Dewpoint Depression Visibility Wind Speed Wind Dir Waves Ship Positions

Carmen1

Last reported at 2017-Oct-13 18:08 UTC. Time now 2017-Oct-18 17:01 UTC.
Position N 48°12' E 015°00'.

Length 114 m; draft 1.8 m.

Type: Passenger vessel. MMSI: 229736000.

Date/timePositionNaut miles runAvg speedWind from/ knotsBaromVisibWave heightAir tempDewpointWater temp
2017-Oct-13 18:08N 48°12' E 015°00'1 8.4
2017-Oct-13 18:00N 48°12' E 015°02'2 3.6
2017-Oct-13 17:30N 48°11' E 015°04'2 3.2
2017-Oct-13 17:00N 48°10' E 015°06'3 6.0
2017-Oct-13 16:30N 48°13' E 015°09'4 7.9
2017-Oct-13 16:00N 48°13' E 015°15'49 2.8
2017-Oct-12 22:10N 48°11' E 016°28'5 3.2
2017-Oct-12 20:38N 48°08' E 016°34'2 5.9
2017-Oct-12 20:17N 48°08' E 016°37'2 3.2
2017-Oct-12 19:34N 48°07' E 016°41'1 5.4
2017-Oct-12 19:25N 48°07' E 016°42'2 4.5
2017-Oct-12 18:58N 48°08' E 016°45'2 4.3
2017-Oct-12 18:29N 48°07' E 016°48'3 5.1
2017-Oct-12 17:56N 48°08' E 016°52'2 4.9
2017-Oct-12 17:30N 48°09' E 016°55'2 3.7
2017-Oct-12 17:00N 48°10' E 016°57'2 3.9
2017-Oct-12 16:30N 48°10' E 016°60'2 4.7
2017-Oct-12 16:00N 48°09' E 017°03'2 4.7
2017-Oct-12 15:30N 48°08' E 017°07'0 0.0
2017-Oct-12 15:00N 48°08' E 017°07'0 0.0
2017-Oct-12 14:30N 48°08' E 017°07'0 0.0
2017-Oct-12 14:00N 48°08' E 017°07'0 0.0
2017-Oct-12 13:30N 48°08' E 017°07'0 0.0
2017-Oct-12 13:00N 48°08' E 017°07'0 0.0
2017-Oct-12 12:30N 48°08' E 017°07'0 0.0
2017-Oct-12 12:00N 48°08' E 017°07'0 0.0
2017-Oct-12 11:30N 48°08' E 017°07'1 2.3
2017-Oct-12 11:00N 48°08' E 017°08'3 5.7
2017-Oct-12 10:30N 48°05' E 017°09'4 7.7
2017-Oct-12 10:00N 48°03' E 017°13'4 8.0
2017-Oct-12 09:30N 48°00' E 017°18'4 8.6
2017-Oct-12 09:00N 47°59' E 017°24'5 9.4
2017-Oct-12 08:30N 47°55' E 017°29'3 6.7
2017-Oct-12 08:00N 47°53' E 017°32'0 0.8
2017-Oct-12 07:30N 47°53' E 017°33'3 6.5
2017-Oct-12 07:00N 47°50' E 017°36'4 7.5
2017-Oct-12 06:30N 47°47' E 017°40'5 6.4
2017-Oct-12 05:46N 47°45' E 017°46'8 5.7
2017-Oct-12 04:21N 47°45' E 017°58'47 5.5
2017-Oct-11 19:45N 47°38' E 019°06'2 7.9
2017-Oct-11 19:29N 47°36' E 019°05'3 7.3
2017-Oct-11 19:00N 47°33' E 019°04'3 6.0
2017-Oct-11 18:30N 47°30' E 019°03'1 2.3
2017-Oct-11 17:53N 47°28' E 019°04'0 0.0
2017-Oct-11 17:26N 47°28' E 019°04'0 0.0
2017-Oct-11 16:50N 47°28' E 019°04'59 3.5
2017-Oct-11 00:00N 47°47' E 017°41'511.2
2017-Oct-10 23:30N 47°50' E 017°35'3 6.7
2017-Oct-10 23:00N 47°53' E 017°32'2 4.2
2017-Oct-10 22:30N 47°55' E 017°30'611.3
2017-Oct-10 22:00N 47°58' E 017°24'4 8.9
2017-Oct-10 21:30N 48°00' E 017°18'5 9.8
2017-Oct-10 21:00N 48°03' E 017°12'510.2
2017-Oct-10 20:30N 48°08' E 017°09'611.4
2017-Oct-10 20:00N 48°09' E 017°01'510.2
2017-Oct-10 19:30N 48°08' E 016°53'612.1
2017-Oct-10 19:00N 48°08' E 016°44'  
2017-Oct-08 10:21N 48°12' E 014°58'3 8.0
2017-Oct-08 10:01N 48°12' E 015°01'2 3.8
2017-Oct-08 09:30N 48°11' E 015°04'1 2.3
2017-Oct-08 09:01N 48°11' E 015°05'2 4.6
2017-Oct-08 08:31N 48°12' E 015°07'4 7.4
2017-Oct-08 08:01N 48°13' E 015°13'4 7.1
2017-Oct-08 07:30N 48°14' E 015°18'1 1.9
2017-Oct-08 07:00N 48°14' E 015°19'44 2.2
2017-Oct-07 11:02N 48°13' E 016°25'0 0.0
2017-Oct-07 10:56N 48°13' E 016°25'0 0.0
2017-Oct-07 10:20N 48°13' E 016°25'0 0.0
2017-Oct-07 09:50N 48°13' E 016°25'0 0.0
2017-Oct-07 08:50N 48°13' E 016°25'0 0.0
2017-Oct-07 08:26N 48°13' E 016°25'0 0.0
2017-Oct-07 07:56N 48°13' E 016°25'0 0.0
2017-Oct-07 07:26N 48°13' E 016°25'0 0.0
2017-Oct-07 06:56N 48°13' E 016°25'0 0.0
2017-Oct-07 06:26N 48°13' E 016°25'0 0.0
2017-Oct-07 05:56N 48°13' E 016°25'0 0.0
2017-Oct-07 05:14N 48°13' E 016°25'0 0.0
2017-Oct-07 04:56N 48°13' E 016°25'0 0.0
2017-Oct-07 04:26N 48°13' E 016°25'0 0.0
2017-Oct-07 03:44N 48°13' E 016°25'0 0.0
2017-Oct-07 03:26N 48°13' E 016°25'0 0.0
2017-Oct-07 01:32N 48°13' E 016°25'0 0.0
2017-Oct-07 01:29N 48°13' E 016°25'0 0.0
2017-Oct-07 00:53N 48°13' E 016°25'0 0.0
2017-Oct-07 00:20N 48°13' E 016°25'0 0.0
2017-Oct-06 23:56N 48°13' E 016°25'0 0.0
2017-Oct-06 23:26N 48°13' E 016°25'0 0.0
2017-Oct-06 22:56N 48°13' E 016°25'0 0.0
2017-Oct-06 22:20N 48°13' E 016°25'0 0.0
2017-Oct-06 21:50N 48°13' E 016°25'0 0.0
2017-Oct-06 21:14N 48°13' E 016°25'0 0.0
2017-Oct-06 20:44N 48°13' E 016°25'0 0.0
2017-Oct-06 20:26N 48°13' E 016°25'0 0.0
2017-Oct-06 19:14N 48°13' E 016°25'0 0.0
2017-Oct-06 17:32N 48°13' E 016°25'0 0.0
2017-Oct-06 16:20N 48°13' E 016°25'0 0.0
2017-Oct-06 15:50N 48°13' E 016°25'0 0.0
2017-Oct-06 15:26N 48°13' E 016°25'0 0.0
2017-Oct-06 13:44N 48°13' E 016°25'0 0.0
2017-Oct-06 13:20N 48°13' E 016°25'0 0.0
2017-Oct-06 12:56N 48°13' E 016°25'0 0.0
2017-Oct-06 11:50N 48°13' E 016°25'4 0.1
2017-Oct-05 00:43N 48°10' E 016°29'5 4.5
2017-Oct-04 23:37N 48°08' E 016°36'2 4.6
2017-Oct-04 23:12N 48°08' E 016°39'2 4.8
2017-Oct-04 22:52N 48°07' E 016°41'2 5.0
2017-Oct-04 22:27N 48°08' E 016°44'2 4.9
2017-Oct-04 22:01N 48°07' E 016°47'2 4.9
2017-Oct-04 21:31N 48°07' E 016°51'3 5.1
2017-Oct-04 21:01N 48°09' E 016°54'2 4.7
2017-Oct-04 20:31N 48°10' E 016°57'2 4.0
2017-Oct-04 20:00N 48°09' E 017°00'2 4.5
2017-Oct-04 19:31N 48°09' E 017°03'2 4.6
2017-Oct-04 19:00N 48°08' E 017°07'0 0.3
2017-Oct-04 18:30N 48°08' E 017°07'0 0.0
2017-Oct-04 18:00N 48°08' E 017°07'0 0.0
2017-Oct-04 17:30N 48°08' E 017°07'0 0.0
2017-Oct-04 17:00N 48°08' E 017°07'0 0.0
2017-Oct-04 16:30N 48°08' E 017°07'0 0.0
2017-Oct-04 16:00N 48°08' E 017°07'0 0.0
2017-Oct-04 15:31N 48°08' E 017°07'0 0.0
2017-Oct-04 15:00N 48°08' E 017°07'0 0.0
2017-Oct-04 14:30N 48°08' E 017°07'0 0.0
2017-Oct-04 14:00N 48°08' E 017°07'0 0.0
2017-Oct-04 13:30N 48°08' E 017°07'0 0.0
2017-Oct-04 13:00N 48°08' E 017°07'0 0.0
2017-Oct-04 12:30N 48°08' E 017°07'2 3.0
2017-Oct-04 12:00N 48°08' E 017°09'4 7.3
2017-Oct-04 11:30N 48°04' E 017°10'5 9.0
2017-Oct-04 11:00N 48°01' E 017°15'4 8.8
2017-Oct-04 10:30N 47°60' E 017°21'4 7.7
2017-Oct-04 10:01N 47°57' E 017°26'4 8.6
2017-Oct-04 09:30N 47°54' E 017°31'2 3.7
2017-Oct-04 09:00N 47°53' E 017°32'1 2.5
2017-Oct-04 08:31N 47°52' E 017°33'3 5.9
2017-Oct-04 08:00N 47°50' E 017°36'4 6.4
2017-Oct-04 07:28N 47°47' E 017°40'5 6.3
2017-Oct-04 06:41N 47°45' E 017°46'55 5.6
2017-Oct-03 20:54N 47°39' E 019°07'3 7.8
2017-Oct-03 20:30N 47°36' E 019°05'4 7.4
2017-Oct-03 20:00N 47°33' E 019°04'3 5.8
2017-Oct-03 19:30N 47°30' E 019°03'1 1.8
2017-Oct-03 19:00N 47°29' E 019°03'0 0.0
2017-Oct-03 18:21N 47°29' E 019°03'  

Dump ship's entire track history